Orlando, FL

8:34 AM EDT on September 30, 2014 (GMT -0400)
Union Park | Change Station
CLOSE
Current Station
Personal Weather Station
Location: Orlando, FL
Elevation: 110 ft
Nearby Weather Stations
Active Advisory: Areal Flood Watch

Elev 110 ft 28.56 °N, 81.24 °W | Updated 11 seconds ago

Mostly Cloudy
Mostly Cloudy
75.0 °F
Feels Like 73 °F
N
2.0
Wind Variable Wind from West
Gusts 4.0 mph

Today
High -- | Low -- °F
--% Chance of Precip.
Yesterday
High -- | Low -- °F
Precip. -- in
7:17 AM 7:11 PM
Waxing Crescent, 36% visible
Pressure 29.85 in
Visibility 8.0 miles
Clouds Mostly Cloudy 1300 ft
Heat Index 73 °F
Dew Point 73 °F
Humidity 95%
Rainfall 0.00 in
Snow Depth Not available.
UV 0 out of 12
Pollen 3.60 out of 12
Ozone Good
PM2.5 Good
Flu Activity Not available.
SPECI KORL 301218Z 29005KT 8SM BKN013 24/23 A2985 RMK AO2 T02440233

More Conditions Fewer Conditions

Pressure 29.85 in
Visibility 8.0 miles
Clouds Mostly Cloudy 1300 ft
Heat Index 73 °F
Dew Point 73 °F
Humidity 95%
Rainfall 0.00 in
Snow Depth Not available.
UV 0 out of 12
Pollen 3.60 out of 12
Ozone Good
PM2.5 Good
Flu Activity Not available.
SPECI KORL 301218Z 29005KT 8SM BKN013 24/23 A2985 RMK AO2 T02440233

More Conditions Fewer Conditions

Nowcast | as of 6:38 am EDT on September 30, 2014

Through 930 am...there will be a chance for showers across east central Florida with showers becoming numerous this afternoon as weak impulses aloft propagate from the eastern Gulf to across Florida. A Flood Watch remains in effect until 9 PM this evening for all of east central Florida. Scattered afternoon thunderstorms are forecast and may bring torrential rainfall to the area. A few stronger cells may be capable of gusty winds to 40 to 50 mph. Additional details...including graphics are available online at: http://www.Srh.NOAA.Gov/mlb/blog.Php

×

10-Day Weather Forecast

Almanac

Astronomy

Sep. 30, 2014 Rise Set
Actual Time 7:17 AM EDT 7:11 PM EDT
Civil Twilight 6:53 AM EDT 7:35 PM EDT
Nautical Twilight 6:26 AM EDT 8:02 PM EDT
Astronomical Twilight 5:59 AM EDT 8:30 PM EDT
Moon 1:02 PM EDT No Moon Set
Length of Visible Light 12h 41m
Length of Day
11h 54m
Tomorrow will be 1m 41s shorter.
Waxing Crescent, 36% of the Moon is Illuminated
Today
Waxing Crescent
Oct 1
First Quarter
Oct 8
Full
Oct 15
Last Quarter
Oct 23
New

Today's Extremes

State Highs State Lows

Community

WunderPhotos

Upload Photos

1,757,623 photos uploaded!

Nearby

Air Quality

  Air Quality AQ Index Pollutant
Yesterday Good
OZONE
Yesterday Good
PM2.5
Current Good
PM2.5
Current Good
OZONE
Tuesday Good
OZONE

Snow Depth

Station Depth Elevation
No new snow has been reported.

Earthquake Activity

City Distance Mag. Time & Date
No recent earthquake activity has been reported nearby.
Minimum magnitude displayed is 2.5.

Coastal Water Temperatures

Place Temperature
Trident Pier, FL 84.0 °F
Fort Myers, FL 84.0 °F
Lake Worth, FL 84.9 °F

Nearby Weather Stations